createdAt,value
2018-11-14T00:01:06.287Z,10.70
2018-11-14T00:03:35.430Z,10.17
2018-11-14T00:06:04.470Z,10.10
2018-11-14T00:08:33.563Z,10.40
2018-11-14T00:11:02.646Z,10.60
2018-11-14T00:13:31.610Z,10.77
2018-11-14T00:16:00.653Z,10.13
2018-11-14T00:18:29.703Z,10.47
2018-11-14T00:20:58.728Z,9.63
2018-11-14T00:23:27.794Z,10.77
2018-11-14T00:25:56.807Z,10.73
2018-11-14T00:28:25.838Z,11.27
2018-11-14T00:30:54.799Z,10.03
2018-11-14T00:33:24.592Z,9.83
2018-11-14T00:35:53.593Z,10.53
2018-11-14T00:38:22.581Z,11.60
2018-11-14T00:40:51.603Z,10.93
2018-11-14T00:43:20.557Z,10.23
2018-11-14T00:45:49.672Z,9.90
2018-11-14T00:48:18.663Z,9.90
2018-11-14T00:50:47.662Z,9.70
2018-11-14T00:53:16.659Z,9.17
2018-11-14T00:55:45.728Z,10.00
2018-11-14T00:58:14.848Z,9.63
2018-11-14T01:00:44.354Z,9.30
2018-11-14T01:03:14.129Z,10.50
2018-11-14T01:05:43.153Z,10.97
2018-11-14T01:08:12.180Z,10.13
2018-11-14T01:10:41.145Z,10.43
2018-11-14T01:13:10.072Z,11.43
2018-11-14T01:15:39.035Z,10.77
2018-11-14T01:18:08.128Z,10.73
2018-11-14T01:20:37.107Z,11.00
2018-11-14T01:23:07.897Z,10.23
2018-11-14T01:25:36.948Z,10.60
2018-11-14T01:28:06.227Z,10.80
2018-11-14T01:30:35.438Z,10.53
2018-11-14T01:33:04.769Z,10.80
2018-11-14T01:35:38.273Z,11.03
2018-11-14T01:38:07.332Z,10.00
2018-11-14T01:40:36.929Z,11.60
2018-11-14T01:43:05.990Z,11.10
2018-11-14T01:45:35.035Z,11.30
2018-11-14T01:48:04.123Z,11.17
2018-11-14T01:50:33.126Z,10.13
2018-11-14T01:53:02.127Z,11.87
2018-11-14T01:55:31.132Z,12.17
2018-11-14T01:58:00.111Z,11.43
2018-11-14T02:00:29.184Z,11.67
2018-11-14T02:02:58.212Z,11.77
2018-11-14T02:05:27.222Z,11.30
2018-11-14T02:07:56.297Z,11.50
2018-11-14T02:10:25.262Z,11.70
2018-11-14T02:12:54.649Z,11.67
2018-11-14T02:15:24.692Z,12.10
2018-11-14T02:17:54.340Z,12.03
2018-11-14T02:20:23.354Z,12.00
2018-11-14T02:22:52.998Z,11.83
2018-11-14T02:25:22.136Z,11.43
2018-11-14T02:27:51.169Z,11.03
2018-11-14T02:30:21.904Z,11.47
2018-11-14T02:32:51.105Z,11.00
2018-11-14T02:35:20.270Z,12.03
2018-11-14T02:37:50.103Z,11.90
2018-11-14T02:40:20.639Z,11.47
2018-11-14T02:42:49.756Z,11.20
2018-11-14T02:45:18.853Z,11.77
2018-11-14T02:47:47.933Z,11.50
2018-11-14T02:50:17.842Z,11.17
2018-11-14T02:52:46.899Z,11.83
2018-11-14T02:55:17.094Z,11.37
2018-11-14T02:57:46.758Z,11.23
2018-11-14T03:00:20.474Z,11.27
2018-11-14T03:02:49.601Z,11.37
2018-11-14T03:05:18.616Z,11.27
2018-11-14T03:07:47.611Z,11.20
2018-11-14T03:10:19.320Z,11.87
2018-11-14T03:12:48.267Z,11.57
2018-11-14T03:15:18.966Z,11.37
2018-11-14T03:17:47.901Z,11.73
2018-11-14T03:20:18.261Z,12.13
2018-11-14T03:22:47.219Z,12.23
2018-11-14T03:25:16.257Z,11.67
2018-11-14T03:27:45.264Z,11.80
2018-11-14T03:30:15.749Z,11.23
2018-11-14T03:32:45.193Z,12.30
2018-11-14T03:35:14.801Z,11.13
2018-11-14T03:37:43.751Z,12.00
2018-11-14T03:40:15.234Z,11.20
2018-11-14T03:42:44.215Z,11.57
2018-11-14T03:45:14.367Z,11.70
2018-11-14T03:47:43.406Z,12.03
2018-11-14T03:50:12.701Z,11.03
2018-11-14T03:52:41.690Z,10.90
2018-11-14T03:55:10.686Z,11.83
2018-11-14T03:57:39.742Z,11.70
2018-11-14T04:00:12.871Z,11.53
2018-11-14T04:02:42.357Z,11.73
2018-11-14T04:05:11.108Z,11.90
2018-11-14T04:07:40.763Z,11.27
2018-11-14T04:10:11.527Z,11.73
2018-11-14T04:12:41.014Z,11.63
2018-11-14T04:15:11.527Z,11.70
2018-11-14T04:17:40.620Z,10.63
2018-11-14T04:20:12.051Z,11.43
2018-11-14T04:22:41.143Z,10.83
2018-11-14T04:25:12.322Z,10.77
2018-11-14T04:27:41.875Z,11.10
2018-11-14T04:30:13.380Z,11.17
2018-11-14T04:32:43.135Z,10.63
2018-11-14T04:35:13.153Z,10.00
2018-11-14T04:37:42.126Z,10.53
2018-11-14T04:40:14.268Z,10.90
2018-11-14T04:42:43.251Z,10.07
2018-11-14T04:45:15.314Z,9.87
2018-11-14T04:47:44.509Z,10.17
2018-11-14T04:50:16.783Z,10.00
2018-11-14T04:52:46.517Z,10.20
2018-11-14T04:55:17.966Z,9.83
2018-11-14T04:57:47.359Z,9.30
2018-11-14T05:00:17.342Z,10.10
2018-11-14T05:02:46.852Z,8.93
2018-11-14T05:05:18.306Z,9.50
2018-11-14T05:07:47.331Z,9.23
2018-11-14T05:10:18.886Z,10.10
2018-11-14T05:12:48.195Z,9.40
2018-11-14T05:15:19.135Z,9.43
2018-11-14T05:17:48.685Z,10.17
2018-11-14T05:20:18.615Z,9.80
2018-11-14T05:22:48.197Z,9.93
2018-11-14T05:25:18.257Z,10.30
2018-11-14T05:27:47.233Z,10.13
2018-11-14T05:30:17.873Z,10.40
2018-11-14T05:32:48.054Z,10.03
2018-11-14T05:35:17.434Z,9.90
2018-11-14T05:37:46.864Z,10.20
2018-11-14T05:40:17.442Z,10.80
2018-11-14T05:42:47.337Z,10.43
2018-11-14T05:45:31.364Z,10.90
2018-11-14T05:48:00.482Z,11.73
2018-11-14T05:50:29.500Z,10.40
2018-11-14T05:52:58.463Z,10.60
2018-11-14T05:55:27.599Z,9.97
2018-11-14T05:57:56.729Z,11.17
2018-11-14T06:00:29.084Z,11.47
2018-11-14T06:02:58.674Z,10.47
2018-11-14T06:05:28.647Z,9.80
2018-11-14T06:07:57.977Z,10.10
2018-11-14T06:10:27.138Z,10.47
2018-11-14T06:12:56.257Z,10.93
2018-11-14T06:15:25.495Z,10.50
2018-11-14T06:17:56.005Z,10.53
2018-11-14T06:20:24.997Z,10.67
2018-11-14T06:22:55.481Z,11.17
2018-11-14T06:25:27.959Z,11.27
2018-11-14T06:27:57.916Z,10.03
2018-11-14T06:30:27.481Z,10.23
2018-11-14T06:32:57.412Z,9.77
2018-11-14T06:35:26.519Z,10.30
2018-11-14T06:37:56.088Z,10.07
2018-11-14T06:40:25.616Z,10.30
2018-11-14T06:42:54.826Z,10.03
2018-11-14T06:45:25.125Z,10.40
2018-11-14T06:47:56.605Z,10.10
2018-11-14T06:50:25.729Z,10.90
2018-11-14T06:53:00.460Z,10.17
2018-11-14T06:55:33.397Z,10.40
2018-11-14T06:58:03.368Z,10.90
2018-11-14T07:00:33.390Z,9.87
2018-11-14T07:03:03.533Z,10.47
2018-11-14T07:05:32.691Z,9.87
2018-11-14T07:08:01.811Z,10.53
2018-11-14T07:10:32.179Z,9.90
2018-11-14T07:13:06.344Z,10.43
2018-11-14T07:15:36.153Z,9.20
2018-11-14T07:18:05.361Z,10.87
2018-11-14T07:20:38.851Z,10.60
2018-11-14T07:23:07.941Z,9.87
2018-11-14T07:25:36.970Z,9.07
2018-11-14T07:28:06.192Z,10.37
2018-11-14T07:30:35.950Z,10.27
2018-11-14T07:33:06.403Z,10.00
2018-11-14T07:35:35.398Z,10.20
2018-11-14T07:38:42.451Z,8.90
2018-11-14T07:41:18.047Z,9.03
2018-11-14T07:43:47.075Z,9.23
2018-11-14T07:46:17.111Z,9.40
2018-11-14T07:48:47.546Z,8.77
2018-11-14T07:51:17.380Z,9.10
2018-11-14T07:53:46.857Z,9.13
2018-11-14T07:56:15.983Z,9.37
2018-11-14T07:58:44.956Z,9.43
2018-11-14T08:01:14.806Z,8.13
2018-11-14T08:03:44.082Z,8.43
2018-11-14T08:06:13.665Z,7.80
2018-11-14T08:08:43.209Z,8.40
2018-11-14T08:11:13.086Z,8.63
2018-11-14T08:13:43.790Z,8.97
2018-11-14T08:16:12.820Z,8.13
2018-11-14T08:18:42.109Z,9.00
2018-11-14T08:21:11.545Z,9.37
2018-11-14T08:23:40.739Z,9.23
2018-11-14T08:26:10.446Z,8.77
2018-11-14T08:28:39.682Z,9.13
2018-11-14T08:31:11.149Z,9.00
2018-11-14T08:33:40.112Z,9.07
2018-11-14T08:36:09.557Z,9.00
2018-11-14T08:38:39.474Z,8.37
2018-11-14T08:41:08.898Z,9.67
2018-11-14T08:43:38.599Z,9.10
2018-11-14T08:46:08.440Z,8.97
2018-11-14T08:48:38.060Z,8.97
2018-11-14T08:51:08.169Z,9.17
2018-11-14T08:53:37.404Z,8.57
2018-11-14T08:56:07.387Z,8.43
2018-11-14T08:58:36.548Z,8.37
2018-11-14T09:01:05.866Z,8.63
2018-11-14T09:03:34.995Z,8.87
2018-11-14T09:06:04.145Z,8.83
2018-11-14T09:08:33.639Z,9.03
2018-11-14T09:11:03.815Z,8.20
2018-11-14T09:13:33.245Z,8.73
2018-11-14T09:16:02.436Z,8.10
2018-11-14T09:18:31.883Z,8.37
2018-11-14T09:21:01.170Z,8.43
2018-11-14T09:23:30.277Z,9.20
2018-11-14T09:25:59.900Z,8.53
2018-11-14T09:28:29.932Z,8.70
2018-11-14T09:31:00.089Z,9.30
2018-11-14T09:33:29.941Z,9.07
2018-11-14T09:35:58.953Z,9.50
2018-11-14T09:38:27.993Z,9.13
2018-11-14T09:40:57.365Z,9.43
2018-11-14T09:43:26.339Z,9.77
2018-11-14T09:45:55.976Z,10.13
2018-11-14T09:48:25.246Z,9.33
2018-11-14T09:50:54.390Z,9.47
2018-11-14T09:53:23.644Z,10.00
2018-11-14T09:55:53.372Z,10.27
2018-11-14T09:58:22.474Z,10.40
2018-11-14T10:00:52.675Z,11.57
2018-11-14T10:03:21.716Z,9.80
2018-11-14T10:05:50.761Z,10.73
2018-11-14T10:08:19.916Z,12.17
2018-11-14T10:10:50.437Z,11.07
2018-11-14T10:13:19.490Z,11.27
2018-11-14T10:15:48.581Z,11.43
2018-11-14T10:18:17.629Z,11.37
2018-11-14T10:20:46.866Z,11.23
2018-11-14T10:23:20.029Z,11.40
2018-11-14T10:25:49.096Z,11.37
2018-11-14T10:28:18.257Z,15.17
2018-11-14T10:30:47.527Z,11.33
2018-11-14T10:33:17.603Z,11.60
2018-11-14T10:35:47.528Z,11.10
2018-11-14T10:38:16.798Z,12.13
2018-11-14T10:40:47.019Z,11.40
2018-11-14T10:43:16.760Z,11.30
2018-11-14T10:45:45.916Z,10.87
2018-11-14T10:48:15.465Z,11.00
2018-11-14T10:50:45.180Z,10.70
2018-11-14T10:53:15.175Z,10.90
2018-11-14T10:55:44.235Z,11.53
2018-11-14T10:58:13.373Z,11.53
2018-11-14T11:00:52.462Z,11.30
2018-11-14T11:03:26.721Z,9.53
2018-11-14T11:07:02.766Z,10.27
2018-11-14T11:09:37.012Z,9.07
2018-11-14T11:12:11.421Z,9.23
2018-11-14T11:17:22.400Z,9.97
2018-11-14T11:19:51.415Z,8.17
2018-11-14T11:22:20.869Z,8.37
2018-11-14T11:24:51.105Z,9.80
2018-11-14T11:27:20.645Z,7.70
2018-11-14T11:29:49.736Z,7.87
2018-11-14T11:32:19.799Z,7.63
2018-11-14T11:34:48.943Z,6.53
2018-11-14T11:37:18.412Z,6.80
2018-11-14T11:39:48.428Z,7.00
2018-11-14T11:42:17.687Z,7.33
2018-11-14T11:44:46.639Z,4.30
2018-11-14T11:47:16.262Z,6.23
2018-11-14T11:49:45.922Z,6.57
2018-11-14T11:52:14.963Z,7.87
2018-11-14T11:54:44.061Z,7.90
2018-11-14T11:57:13.120Z,5.87
2018-11-14T11:59:42.152Z,5.47
2018-11-14T12:02:11.393Z,5.40
2018-11-14T12:04:40.363Z,4.97
2018-11-14T12:07:09.410Z,5.23
2018-11-14T12:09:38.600Z,4.57
2018-11-14T12:12:07.679Z,4.90
2018-11-14T12:14:36.772Z,5.20
2018-11-14T12:17:06.027Z,6.67
2018-11-14T12:19:35.177Z,6.53
2018-11-14T12:22:04.335Z,5.57
2018-11-14T12:24:34.339Z,6.50
2018-11-14T12:27:05.517Z,7.43
2018-11-14T12:29:34.738Z,5.83
2018-11-14T12:32:10.209Z,6.07
2018-11-14T12:34:39.322Z,5.77
2018-11-14T12:37:08.846Z,5.87
2018-11-14T12:39:38.975Z,6.00
2018-11-14T12:42:08.792Z,6.17
2018-11-14T12:44:37.921Z,6.13
2018-11-14T12:49:35.635Z,6.40
2018-11-14T12:52:04.989Z,7.23
2018-11-14T12:54:34.651Z,8.27
2018-11-14T12:57:03.983Z,6.50
2018-11-14T12:59:33.161Z,6.40
2018-11-14T13:02:02.579Z,5.97
2018-11-14T13:04:32.453Z,5.43
2018-11-14T13:07:02.241Z,6.10
2018-11-14T13:09:31.399Z,6.80
2018-11-14T13:12:01.055Z,6.27
2018-11-14T13:14:33.127Z,7.90
2018-11-14T13:17:05.030Z,8.73
2018-11-14T13:19:34.340Z,8.77
2018-11-14T13:22:03.844Z,8.27
2018-11-14T13:24:35.080Z,9.33
2018-11-14T13:27:05.584Z,9.53
2018-11-14T13:29:34.966Z,7.57
2018-11-14T13:32:08.302Z,7.73
2018-11-14T13:34:37.535Z,7.00
2018-11-14T13:37:07.723Z,7.43
2018-11-14T13:39:37.636Z,6.63
2018-11-14T13:42:07.057Z,7.17
2018-11-14T13:44:37.464Z,7.47
2018-11-14T13:47:07.538Z,6.50
2018-11-14T13:49:36.805Z,4.60
2018-11-14T13:52:10.579Z,5.77
2018-11-14T13:54:39.710Z,5.53
2018-11-14T13:57:09.534Z,5.33
2018-11-14T13:59:38.787Z,5.43
2018-11-14T14:02:07.995Z,5.07
2018-11-14T14:04:37.625Z,5.93
2018-11-14T14:07:07.027Z,6.93
2018-11-14T14:09:36.673Z,7.00
2018-11-14T14:12:05.865Z,7.20
2018-11-14T14:14:35.199Z,7.77
2018-11-14T14:17:04.714Z,7.70
2018-11-14T14:19:34.079Z,7.43
2018-11-14T14:22:03.423Z,7.43
2018-11-14T14:24:33.735Z,7.83
2018-11-14T14:27:03.059Z,5.90
2018-11-14T14:29:32.379Z,6.03
2018-11-14T14:32:01.601Z,5.73
2018-11-14T14:34:30.964Z,6.73
2018-11-14T14:37:00.646Z,6.20
2018-11-14T14:39:29.906Z,5.97
2018-11-14T14:41:59.568Z,7.00
2018-11-14T14:44:28.599Z,6.20
2018-11-14T14:46:57.773Z,6.23
2018-11-14T14:49:26.856Z,6.13
2018-11-14T14:51:56.014Z,6.20
2018-11-14T14:54:24.948Z,5.90
2018-11-14T14:56:54.005Z,5.43
2018-11-14T14:59:25.087Z,6.00
2018-11-14T15:01:55.202Z,6.07
2018-11-14T15:04:26.956Z,6.50
2018-11-14T15:06:56.226Z,5.93
2018-11-14T15:09:25.466Z,6.73
2018-11-14T15:11:54.569Z,6.47
2018-11-14T15:14:23.775Z,6.27
2018-11-14T15:16:52.946Z,6.17
2018-11-14T15:19:22.115Z,6.37
2018-11-14T15:21:56.361Z,6.47
2018-11-14T15:24:25.493Z,6.60
2018-11-14T15:26:55.564Z,7.53
2018-11-14T15:29:24.778Z,7.67
2018-11-14T15:31:53.925Z,7.93
2018-11-14T15:34:24.887Z,8.20
2018-11-14T15:36:54.120Z,8.30
2018-11-14T15:39:23.373Z,8.73
2018-11-14T15:41:52.927Z,8.87
2018-11-14T15:44:22.668Z,9.17
2018-11-14T15:46:52.071Z,9.57
2018-11-14T15:49:21.767Z,10.20
2018-11-14T15:51:51.790Z,9.53
2018-11-14T15:54:21.390Z,10.03
2018-11-14T15:56:51.395Z,11.83
2018-11-14T15:59:21.252Z,10.93
2018-11-14T16:01:50.766Z,11.20
2018-11-14T16:04:20.321Z,10.63
2018-11-14T16:06:50.459Z,11.33
2018-11-14T16:09:20.969Z,11.20
2018-11-14T16:11:51.768Z,10.43
2018-11-14T16:14:22.441Z,11.13
2018-11-14T16:16:53.381Z,12.50
2018-11-14T16:19:24.222Z,13.90
2018-11-14T16:21:53.827Z,16.00
2018-11-14T16:24:23.077Z,16.60
2018-11-14T16:26:54.076Z,19.20
2018-11-14T16:29:23.652Z,16.27
2018-11-14T16:31:54.414Z,15.60
2018-11-14T16:34:28.184Z,15.00
2018-11-14T16:36:59.988Z,13.00
2018-11-14T16:39:29.254Z,13.13
2018-11-14T16:42:04.678Z,13.17
2018-11-14T16:44:34.989Z,13.17
2018-11-14T16:47:07.735Z,11.27
2018-11-14T16:49:37.074Z,12.83
2018-11-14T16:52:08.322Z,12.07
2018-11-14T16:54:37.547Z,12.67
2018-11-14T16:57:06.884Z,11.33
2018-11-14T16:59:37.122Z,10.97
2018-11-14T17:02:06.273Z,13.57
2018-11-14T17:04:35.682Z,14.37
2018-11-14T17:07:04.918Z,11.77
2018-11-14T17:09:34.974Z,11.97
2018-11-14T17:12:04.225Z,9.93
2018-11-14T17:14:39.529Z,12.63
2018-11-14T17:17:13.678Z,13.70
2018-11-14T17:19:43.786Z,14.90
2018-11-14T17:22:19.260Z,16.67
2018-11-14T17:24:48.443Z,22.90
2018-11-14T17:27:17.541Z,17.77
2018-11-14T17:29:46.990Z,18.77
2018-11-14T17:32:16.105Z,18.03
2018-11-14T17:34:45.383Z,17.37
2018-11-14T17:37:14.713Z,15.70
2018-11-14T17:39:44.075Z,15.13
2018-11-14T17:42:13.898Z,12.07
2018-11-14T17:44:43.026Z,12.73
2018-11-14T17:47:12.091Z,13.03
2018-11-14T17:49:42.278Z,11.87
2018-11-14T17:52:12.519Z,11.73
2018-11-14T17:54:42.024Z,12.40
2018-11-14T17:57:11.478Z,12.10
2018-11-14T17:59:47.561Z,13.73
2018-11-14T18:02:16.735Z,12.23
2018-11-14T18:04:45.751Z,14.90
2018-11-14T18:07:14.961Z,13.93
2018-11-14T18:09:44.011Z,14.10
2018-11-14T18:12:13.451Z,13.30
2018-11-14T18:14:47.603Z,13.60
2018-11-14T18:17:17.031Z,14.67
2018-11-14T18:19:46.282Z,15.00
2018-11-14T18:22:15.456Z,13.93
2018-11-14T18:24:44.518Z,14.67
2018-11-14T18:27:13.546Z,15.17
2018-11-14T18:29:42.699Z,14.83
2018-11-14T18:32:11.956Z,14.27
2018-11-14T18:34:41.136Z,15.03
2018-11-14T18:37:10.553Z,12.73
2018-11-14T18:39:40.628Z,13.00
2018-11-14T18:42:10.077Z,15.60
2018-11-14T18:44:39.932Z,15.23
2018-11-14T18:47:09.108Z,14.50
2018-11-14T18:49:38.691Z,15.83
2018-11-14T18:52:07.781Z,15.57
2018-11-14T18:54:36.937Z,15.47
2018-11-14T18:57:06.208Z,15.17
2018-11-14T18:59:35.351Z,15.83
2018-11-14T19:02:04.647Z,17.13
2018-11-14T19:04:33.810Z,17.20
2018-11-14T19:07:03.092Z,15.67
2018-11-14T19:09:32.125Z,14.90
2018-11-14T19:12:02.849Z,16.50
2018-11-14T19:14:32.052Z,15.60
2018-11-14T19:17:01.242Z,14.80
2018-11-14T19:19:30.444Z,17.63
2018-11-14T19:22:01.177Z,18.63
2018-11-14T19:26:57.254Z,20.80
2018-11-14T19:29:29.564Z,18.17
2018-11-14T19:31:58.748Z,17.17
2018-11-14T19:34:33.373Z,17.50
2018-11-14T19:37:03.396Z,15.97
2018-11-14T19:39:33.075Z,16.53
2018-11-14T19:42:02.984Z,17.70
2018-11-14T19:44:32.034Z,15.33
2018-11-14T19:47:01.153Z,17.37
2018-11-14T19:49:30.225Z,17.83
2018-11-14T19:51:59.272Z,18.00
2018-11-14T19:54:28.606Z,18.67
2018-11-14T19:56:57.796Z,18.03
2018-11-14T19:59:26.799Z,18.43
2018-11-14T20:01:57.355Z,16.93
2018-11-14T20:04:27.007Z,17.00
2018-11-14T20:06:57.333Z,17.23
2018-11-14T20:09:28.023Z,16.43
2018-11-14T20:11:57.433Z,17.40
2018-11-14T20:14:27.496Z,17.53
2018-11-14T20:16:56.742Z,18.70
2018-11-14T20:19:25.783Z,19.03
2018-11-14T20:21:55.388Z,18.87
2018-11-14T20:24:25.998Z,17.13
2018-11-14T20:29:29.873Z,16.70
2018-11-14T20:31:59.021Z,19.40
2018-11-14T20:34:28.423Z,18.73
2018-11-14T20:36:57.492Z,19.83
2018-11-14T20:39:27.861Z,20.70
2018-11-14T20:41:56.960Z,18.70
2018-11-14T20:44:26.141Z,21.43
2018-11-14T20:46:56.466Z,19.73
2018-11-14T20:49:25.454Z,19.03
2018-11-14T20:51:55.452Z,20.03
2018-11-14T20:54:24.484Z,19.90
2018-11-14T20:56:53.561Z,20.23
2018-11-14T20:59:22.736Z,19.17
2018-11-14T21:01:51.768Z,20.37
2018-11-14T21:04:20.737Z,19.23
2018-11-14T21:06:49.822Z,21.43
2018-11-14T21:09:18.976Z,21.30
2018-11-14T21:11:48.147Z,21.20
2018-11-14T21:14:17.436Z,20.70
2018-11-14T21:16:46.619Z,19.03
2018-11-14T21:19:17.012Z,21.30
2018-11-14T21:21:47.286Z,18.97
2018-11-14T21:24:16.570Z,20.87
2018-11-14T21:26:45.856Z,21.70
2018-11-14T21:29:15.114Z,23.20
2018-11-14T21:31:44.351Z,21.47
2018-11-14T21:34:13.565Z,23.33
2018-11-14T21:36:43.967Z,22.30
2018-11-14T21:39:14.655Z,21.80
2018-11-14T21:41:44.395Z,22.30
2018-11-14T21:44:13.518Z,24.10
2018-11-14T21:46:42.737Z,20.97
2018-11-14T21:49:16.996Z,19.60
2018-11-14T21:51:46.011Z,20.47
2018-11-14T21:54:15.018Z,20.03
2018-11-14T21:56:44.184Z,21.77
2018-11-14T21:59:14.125Z,22.37
2018-11-14T22:01:43.311Z,20.77
2018-11-14T22:04:12.631Z,23.83
2018-11-14T22:06:41.821Z,21.37
2018-11-14T22:09:12.321Z,21.03
2018-11-14T22:11:41.347Z,21.90
2018-11-14T22:14:10.789Z,19.73
2018-11-14T22:16:39.771Z,22.83
2018-11-14T22:19:08.883Z,23.93
2018-11-14T22:21:37.816Z,22.57
2018-11-14T22:24:06.849Z,22.13
2018-11-14T22:26:36.422Z,22.53
2018-11-14T22:29:07.247Z,20.60
2018-11-14T22:31:36.282Z,21.57
2018-11-14T22:34:06.392Z,22.03
2018-11-14T22:36:36.271Z,23.77
2018-11-14T22:39:08.239Z,20.13
2018-11-14T22:41:37.411Z,23.03
2018-11-14T22:44:06.674Z,20.67
2018-11-14T22:46:35.683Z,22.63
2018-11-14T22:49:04.836Z,22.57
2018-11-14T22:51:33.857Z,18.60
2018-11-14T22:54:02.813Z,17.47
2018-11-14T22:56:31.801Z,18.67
2018-11-14T22:59:00.974Z,18.53
2018-11-14T23:01:34.389Z,19.23
2018-11-14T23:04:03.454Z,21.27
2018-11-14T23:06:33.032Z,19.30
2018-11-14T23:09:02.092Z,18.63
2018-11-14T23:11:31.609Z,19.30
2018-11-14T23:14:01.109Z,19.47
2018-11-14T23:16:30.176Z,20.57
2018-11-14T23:18:59.322Z,17.13
2018-11-14T23:21:28.291Z,17.83
2018-11-14T23:23:57.462Z,20.70
2018-11-14T23:26:26.381Z,18.77
2018-11-14T23:28:55.293Z,18.30
2018-11-14T23:31:24.311Z,17.53
2018-11-14T23:33:53.336Z,18.33
2018-11-14T23:36:22.355Z,18.73
2018-11-14T23:38:51.346Z,19.67
2018-11-14T23:41:20.597Z,18.23
2018-11-14T23:43:49.509Z,17.40
2018-11-14T23:46:18.456Z,17.07
2018-11-14T23:48:47.396Z,17.83
2018-11-14T23:51:16.368Z,18.23
2018-11-14T23:53:45.285Z,17.27
2018-11-14T23:56:14.240Z,19.23
2018-11-14T23:58:43.133Z,17.97
